Time;durP1;ratioP1;P1;durP2;ratioP2;P2;SDS_P1;SDS_P2;PMS_P1;PMS_P2;Temp;Humidity;BMP_temperature;BMP_pressure;BME280_temperature;BME280_humidity;BME280_pressure;Samples;Min_cycle;Max_cycle;Signal;HPM_P1;HPM_P2
2023/06/09 00:02:03;;;;;;;14.88;4.38;;;14.20;97.10;;;;;;5056401;28;20101;-69
2023/06/09 00:04:32;;;;;;;16.98;5.15;;;14.20;97.50;;;;;;5072860;28;20069;-69
2023/06/09 00:06:58;;;;;;;16.58;4.82;;;14.20;97.70;;;;;;5073513;28;20466;-69
2023/06/09 00:09:24;;;;;;;19.23;5.07;;;14.20;97.70;;;;;;5073099;28;20497;-69
2023/06/09 00:11:50;;;;;;;14.23;4.28;;;14.30;97.90;;;;;;5056338;28;20046;-69
2023/06/09 00:14:16;;;;;;;16.95;5.53;;;14.30;98.10;;;;;;5072668;28;20488;-69
2023/06/09 00:16:45;;;;;;;17.10;5.13;;;14.30;98.00;;;;;;5072576;28;20036;-69
2023/06/09 00:19:11;;;;;;;15.07;5.10;;;14.20;98.20;;;;;;5072548;28;20511;-69
2023/06/09 00:21:37;;;;;;;14.88;5.53;;;14.20;98.40;;;;;;5056112;28;20033;-69
2023/06/09 00:24:04;;;;;;;20.33;6.00;;;14.20;98.70;;;;;;5072417;28;20497;-69
2023/06/09 00:26:30;;;;;;;19.25;5.80;;;14.20;98.70;;;;;;5071696;28;20044;-69
2023/06/09 00:28:56;;;;;;;18.95;5.95;;;14.20;98.90;;;;;;5072418;28;20044;-69
2023/06/09 00:31:22;;;;;;;15.52;5.88;;;14.20;99.00;;;;;;5072255;28;20041;-69
2023/06/09 00:33:47;;;;;;;20.15;6.55;;;14.20;99.20;;;;;;5072313;28;20037;-69
2023/06/09 00:36:14;;;;;;;16.67;6.15;;;14.20;99.40;;;;;;5073532;28;20083;-69
2023/06/09 00:38:40;;;;;;;14.27;6.07;;;14.20;99.40;;;;;;5072232;28;20080;-69
2023/06/09 00:41:05;;;;;;;21.13;6.40;;;14.20;99.60;;;;;;5072368;28;20044;-69
2023/06/09 00:43:31;;;;;;;17.27;7.20;;;14.20;99.60;;;;;;5072206;28;20429;-69
2023/06/09 00:46:03;;;;;;;15.45;7.07;;;14.20;99.90;;;;;;5055410;28;20082;-69
2023/06/09 00:48:29;;;;;;;19.00;7.07;;;14.10;99.90;;;;;;5055495;28;20040;-69
2023/06/09 00:50:55;;;;;;;21.23;6.53;;;14.10;99.90;;;;;;5072063;28;20078;-69
2023/06/09 00:53:23;;;;;;;19.75;6.80;;;14.10;99.90;;;;;;5055558;28;20102;-69
2023/06/09 00:55:49;;;;;;;18.73;6.68;;;14.10;99.90;;;;;;5072045;28;20045;-69
2023/06/09 00:58:16;;;;;;;20.33;7.30;;;14.10;99.90;;;;;;5071953;28;20528;-69
2023/06/09 01:00:41;;;;;;;17.45;6.82;;;14.10;99.90;;;;;;5071945;28;20546;-69
2023/06/09 01:03:09;;;;;;;26.30;7.28;;;14.10;99.90;;;;;;5071732;28;20560;-69
2023/06/09 01:05:37;;;;;;;13.27;5.93;;;14.10;99.90;;;;;;5071819;28;20412;-69
2023/06/09 01:08:15;;;;;;;18.13;7.32;;;14.00;99.90;;;;;;5071834;28;20443;-69
2023/06/09 01:11:02;;;;;;;19.52;7.50;;;14.10;99.90;;;;;;5071873;28;20043;-69
2023/06/09 01:13:48;;;;;;;18.73;7.10;;;14.00;99.90;;;;;;5055132;28;20121;-69
2023/06/09 01:16:23;;;;;;;16.67;6.90;;;14.00;99.90;;;;;;5071806;28;20044;-69
2023/06/09 01:18:51;;;;;;;21.17;7.03;;;14.00;99.90;;;;;;5055115;28;20032;-69
2023/06/09 01:21:32;;;;;;;22.10;7.20;;;13.90;99.90;;;;;;5055227;28;20573;-69
2023/06/09 01:24:19;;;;;;;16.27;7.60;;;14.00;99.90;;;;;;5072031;28;20405;-69
2023/06/09 01:26:50;;;;;;;16.38;6.88;;;13.90;99.90;;;;;;5055051;28;20182;-69
2023/06/09 01:29:18;;;;;;;22.55;7.95;;;13.80;99.90;;;;;;5071700;28;20044;-69
2023/06/09 01:31:46;;;;;;;17.13;7.60;;;13.80;99.90;;;;;;5071748;28;20040;-69
2023/06/09 01:34:13;;;;;;;19.42;6.88;;;13.80;99.90;;;;;;5071856;28;20040;-69
2023/06/09 01:36:40;;;;;;;18.35;6.60;;;13.70;99.90;;;;;;5072175;28;20508;-69
2023/06/09 01:39:06;;;;;;;17.50;7.13;;;13.70;99.90;;;;;;5075646;28;20042;-69
2023/06/09 01:41:31;;;;;;;20.63;6.70;;;13.70;99.90;;;;;;5075532;28;20090;-69
2023/06/09 01:43:57;;;;;;;19.15;6.78;;;13.70;99.90;;;;;;5058928;28;20036;-69
2023/06/09 01:46:23;;;;;;;20.73;6.40;;;13.70;99.90;;;;;;5075462;28;20040;-69
2023/06/09 01:49:01;;;;;;;17.02;6.47;;;13.60;99.90;;;;;;5075492;28;20413;-69
2023/06/09 01:51:33;;;;;;;21.73;6.80;;;13.60;99.90;;;;;;5075398;28;20093;-69
2023/06/09 01:54:05;;;;;;;16.50;6.38;;;13.50;99.90;;;;;;5058788;28;20072;-69
2023/06/09 01:56:40;;;;;;;19.30;6.55;;;13.50;99.90;;;;;;5076454;28;20040;-69
2023/06/09 01:59:08;;;;;;;19.40;6.93;;;13.50;99.90;;;;;;5075289;28;20045;-69
2023/06/09 02:01:35;;;;;;;19.33;7.05;;;13.50;99.90;;;;;;5058799;28;20113;-69
2023/06/09 02:04:04;;;;;;;15.75;6.18;;;13.50;99.90;;;;;;5075348;28;20041;-69
2023/06/09 02:06:32;;;;;;;16.25;6.53;;;13.50;99.90;;;;;;5058438;28;20048;-69
2023/06/09 02:08:58;;;;;;;21.58;6.97;;;13.50;99.90;;;;;;5075081;28;20040;-69
2023/06/09 02:11:25;;;;;;;21.15;7.20;;;13.40;99.90;;;;;;5074983;28;20044;-69
2023/06/09 02:13:55;;;;;;;14.25;6.60;;;13.40;99.90;;;;;;5058324;28;20481;-69
2023/06/09 02:16:22;;;;;;;17.45;6.85;;;13.40;99.90;;;;;;5075182;28;20504;-69
2023/06/09 02:18:49;;;;;;;20.00;7.40;;;13.40;99.90;;;;;;5074889;28;20055;-69
2023/06/09 02:21:15;;;;;;;20.65;7.63;;;13.40;99.90;;;;;;5074742;28;20452;-69
2023/06/09 02:23:40;;;;;;;23.77;8.48;;;13.30;99.90;;;;;;5075070;28;20044;-69
2023/06/09 02:26:06;;;;;;;19.55;7.13;;;13.30;99.90;;;;;;5074706;28;20409;-69
2023/06/09 02:28:32;;;;;;;19.00;6.90;;;13.30;99.90;;;;;;5074968;28;20036;-69
2023/06/09 02:30:58;;;;;;;22.02;7.70;;;13.20;99.90;;;;;;5058034;28;20040;-69
2023/06/09 02:33:25;;;;;;;19.80;7.20;;;13.20;99.90;;;;;;5074807;28;20052;-69
2023/06/09 02:35:52;;;;;;;22.88;8.55;;;13.20;99.90;;;;;;5057906;28;20039;-69
2023/06/09 02:38:17;;;;;;;20.67;7.72;;;13.10;99.90;;;;;;5074512;28;20501;-69
2023/06/09 02:40:46;;;;;;;23.55;7.88;;;13.10;99.90;;;;;;5074473;28;20036;-69
2023/06/09 02:43:12;;;;;;;17.20;7.88;;;13.10;99.90;;;;;;5074378;28;20524;-69
2023/06/09 02:45:38;;;;;;;25.33;8.70;;;13.10;99.90;;;;;;5057682;28;20041;-69
2023/06/09 02:48:04;;;;;;;18.88;7.90;;;13.00;99.90;;;;;;5074044;28;20040;-69
2023/06/09 02:50:30;;;;;;;18.83;7.53;;;13.00;99.90;;;;;;5074056;28;20032;-68
2023/06/09 02:52:56;;;;;;;24.30;8.85;;;13.00;99.90;;;;;;5074215;28;20513;-69
2023/06/09 02:55:22;;;;;;;23.92;8.70;;;13.00;99.90;;;;;;5074211;28;20036;-69
2023/06/09 02:57:48;;;;;;;22.98;7.93;;;13.00;99.90;;;;;;5057486;28;20082;-69
2023/06/09 03:00:14;;;;;;;22.77;8.10;;;13.00;99.90;;;;;;5074122;28;20040;-69
2023/06/09 03:02:41;;;;;;;21.95;8.45;;;13.00;99.90;;;;;;5073991;28;20044;-69
2023/06/09 03:05:08;;;;;;;19.25;8.25;;;13.00;99.90;;;;;;5074007;28;20040;-69
2023/06/09 03:07:33;;;;;;;19.30;8.23;;;13.00;99.90;;;;;;5074240;28;20397;-69
2023/06/09 03:10:01;;;;;;;24.27;8.60;;;13.00;99.90;;;;;;5073985;28;20565;-69
2023/06/09 03:12:27;;;;;;;17.45;7.88;;;13.00;99.90;;;;;;5073867;28;20071;-69
2023/06/09 03:14:52;;;;;;;18.52;8.70;;;13.00;99.90;;;;;;5074149;28;20086;-69
2023/06/09 03:17:18;;;;;;;19.75;7.70;;;13.00;99.90;;;;;;5073825;28;20501;-69
2023/06/09 03:19:44;;;;;;;18.40;8.40;;;13.00;99.90;;;;;;5073858;28;20045;-69
2023/06/09 03:22:10;;;;;;;21.15;8.90;;;13.00;99.90;;;;;;5073974;28;20045;-69
2023/06/09 03:24:35;;;;;;;26.92;8.65;;;13.00;99.90;;;;;;5073727;28;20045;-69
2023/06/09 03:27:01;;;;;;;22.08;9.32;;;13.00;99.90;;;;;;5057296;28;20043;-69
2023/06/09 03:29:28;;;;;;;22.83;8.35;;;12.90;99.90;;;;;;5073881;28;20486;-69
2023/06/09 03:31:55;;;;;;;18.10;8.00;;;12.90;99.90;;;;;;5073492;28;20040;-69
2023/06/09 03:34:22;;;;;;;19.30;8.20;;;12.90;99.90;;;;;;5073532;28;20555;-69
2023/06/09 03:36:48;;;;;;;20.08;7.80;;;12.90;99.90;;;;;;5073724;28;20055;-69
2023/06/09 03:39:14;;;;;;;21.38;8.13;;;12.90;99.90;;;;;;5073371;28;20032;-69
2023/06/09 03:41:39;;;;;;;18.23;7.05;;;12.90;99.90;;;;;;5073295;28;20036;-69
2023/06/09 03:44:05;;;;;;;19.83;7.80;;;12.90;99.90;;;;;;5056672;28;20043;-69
2023/06/09 03:46:30;;;;;;;23.95;8.13;;;12.90;99.90;;;;;;5073191;28;20044;-69
2023/06/09 03:48:56;;;;;;;17.25;8.18;;;13.00;99.90;;;;;;5073242;28;20035;-69
2023/06/09 03:51:22;;;;;;;19.92;8.65;;;13.00;99.90;;;;;;5073116;28;20044;-69
2023/06/09 03:53:47;;;;;;;21.08;8.00;;;13.00;99.90;;;;;;5073244;28;20037;-69
2023/06/09 03:56:13;;;;;;;25.02;9.43;;;13.00;99.90;;;;;;5073341;28;20048;-69
2023/06/09 03:58:39;;;;;;;19.08;8.32;;;12.90;99.90;;;;;;5073046;28;20080;-69
2023/06/09 04:01:10;;;;;;;24.27;9.13;;;13.00;99.90;;;;;;5072880;28;20076;-69
2023/06/09 04:03:36;;;;;;;22.35;8.93;;;13.00;99.90;;;;;;5073027;28;20049;-69
2023/06/09 04:06:03;;;;;;;24.38;9.40;;;13.00;99.90;;;;;;5072868;28;20040;-69
2023/06/09 04:08:29;;;;;;;22.15;8.50;;;13.00;99.90;;;;;;5072995;28;20043;-69
2023/06/09 04:10:54;;;;;;;21.02;8.57;;;13.10;99.90;;;;;;5072784;28;20036;-69
2023/06/09 04:13:21;;;;;;;16.90;8.00;;;13.00;99.90;;;;;;5072635;28;20040;-69
2023/06/09 04:15:46;;;;;;;23.08;8.45;;;13.10;99.90;;;;;;5072640;28;20048;-69
2023/06/09 04:18:12;;;;;;;24.15;8.80;;;13.00;99.90;;;;;;5072878;28;20050;-69
2023/06/09 04:20:38;;;;;;;20.80;8.20;;;13.10;99.90;;;;;;5072874;28;20401;-69
2023/06/09 04:23:05;;;;;;;17.88;8.05;;;13.10;99.90;;;;;;5056112;28;20401;-69
2023/06/09 04:25:35;;;;;;;20.23;8.95;;;13.10;99.90;;;;;;5072423;28;20043;-69
2023/06/09 04:28:03;;;;;;;18.67;8.85;;;13.10;99.90;;;;;;5072485;28;20083;-69
2023/06/09 04:30:29;;;;;;;24.27;9.02;;;13.10;99.90;;;;;;5072387;28;20048;-69
2023/06/09 04:32:58;;;;;;;26.95;9.40;;;13.10;99.90;;;;;;5072269;28;20505;-69
2023/06/09 04:35:24;;;;;;;21.73;9.40;;;13.20;99.90;;;;;;5072557;28;20509;-69
2023/06/09 04:37:51;;;;;;;17.63;8.90;;;13.20;99.90;;;;;;5072244;28;20068;-69
2023/06/09 04:40:25;;;;;;;19.02;7.57;;;13.20;99.90;;;;;;5072250;28;20059;-69
2023/06/09 04:42:52;;;;;;;16.88;8.43;;;13.20;99.90;;;;;;5072128;28;20451;-69
2023/06/09 04:45:19;;;;;;;19.70;8.50;;;13.30;99.90;;;;;;5072131;28;20157;-69
2023/06/09 04:47:48;;;;;;;22.60;8.80;;;13.30;99.90;;;;;;5072093;28;20401;-69
2023/06/09 04:50:15;;;;;;;21.65;8.77;;;13.40;99.90;;;;;;5072125;28;20040;-69
2023/06/09 04:52:42;;;;;;;20.27;8.43;;;13.40;99.90;;;;;;5072005;28;20090;-69
2023/06/09 04:55:08;;;;;;;24.27;9.00;;;13.50;99.90;;;;;;5055308;28;20052;-69
2023/06/09 04:57:34;;;;;;;20.25;8.93;;;13.60;99.90;;;;;;5055316;28;20045;-69
2023/06/09 05:00:15;;;;;;;23.48;9.68;;;13.60;99.90;;;;;;5055370;28;20497;-69
2023/06/09 05:02:42;;;;;;;18.45;9.10;;;13.60;99.90;;;;;;5055225;28;20048;-69
2023/06/09 05:05:09;;;;;;;26.23;10.23;;;13.70;99.90;;;;;;5073024;28;20047;-69
2023/06/09 05:07:35;;;;;;;23.33;8.02;;;13.70;99.90;;;;;;5071906;28;20079;-69
2023/06/09 05:10:01;;;;;;;21.88;9.40;;;13.70;99.90;;;;;;5071895;28;20051;-69
2023/06/09 05:12:27;;;;;;;21.92;8.98;;;13.70;99.90;;;;;;5071605;28;20070;-69
2023/06/09 05:14:52;;;;;;;23.77;9.32;;;13.80;99.90;;;;;;5071845;28;20504;-69
2023/06/09 05:17:18;;;;;;;22.20;9.30;;;13.80;99.90;;;;;;5072105;28;20044;-69
2023/06/09 05:19:44;;;;;;;25.80;10.35;;;13.90;99.90;;;;;;5071757;28;20444;-69
2023/06/09 05:22:09;;;;;;;17.05;9.57;;;14.00;99.90;;;;;;5055002;28;20048;-69
2023/06/09 05:24:35;;;;;;;17.92;8.93;;;14.00;99.90;;;;;;5054881;28;20043;-69
2023/06/09 05:27:01;;;;;;;21.67;9.32;;;14.10;99.90;;;;;;5071672;28;20036;-69
2023/06/09 05:29:26;;;;;;;19.50;8.90;;;14.10;99.90;;;;;;5071677;28;20039;-69
2023/06/09 05:31:52;;;;;;;21.00;9.15;;;14.10;99.90;;;;;;5071863;28;20047;-69
2023/06/09 05:34:17;;;;;;;21.23;9.90;;;14.20;99.90;;;;;;5071642;28;20609;-69
2023/06/09 05:36:43;;;;;;;23.92;8.75;;;14.30;99.90;;;;;;5071868;28;20035;-69
2023/06/09 05:39:08;;;;;;;23.35;8.68;;;14.40;99.90;;;;;;5071608;28;20582;-69
2023/06/09 05:41:34;;;;;;;23.15;9.05;;;14.50;99.90;;;;;;5071781;28;20120;-69
2023/06/09 05:44:00;;;;;;;25.52;9.75;;;14.60;99.90;;;;;;5072612;28;20036;-69
2023/06/09 05:46:26;;;;;;;18.75;7.90;;;14.60;99.90;;;;;;5071469;28;20449;-69
2023/06/09 05:48:51;;;;;;;24.92;8.52;;;14.70;99.90;;;;;;5071560;28;20037;-69
2023/06/09 05:51:18;;;;;;;20.88;8.40;;;14.80;99.90;;;;;;5071674;28;20124;-69
2023/06/09 05:53:43;;;;;;;19.42;8.25;;;14.80;99.90;;;;;;5071486;28;20041;-69
2023/06/09 05:56:09;;;;;;;18.50;8.43;;;14.90;99.90;;;;;;5054706;28;20048;-69
2023/06/09 05:58:36;;;;;;;17.98;7.53;;;15.00;99.90;;;;;;5071416;28;20037;-69
2023/06/09 06:01:03;;;;;;;18.48;7.60;;;15.10;99.90;;;;;;5071426;28;20051;-69
2023/06/09 06:03:29;;;;;;;21.10;8.25;;;15.20;99.90;;;;;;5071511;28;20063;-69
2023/06/09 06:05:54;;;;;;;14.52;7.55;;;15.20;99.90;;;;;;5071265;28;20040;-69
2023/06/09 06:08:20;;;;;;;16.50;7.15;;;15.30;99.90;;;;;;5071648;28;20044;-70
2023/06/09 06:10:46;;;;;;;18.88;8.15;;;15.40;99.90;;;;;;5071275;28;20515;-70
2023/06/09 06:13:13;;;;;;;20.52;8.60;;;15.50;99.90;;;;;;5054589;28;20037;-70
2023/06/09 06:15:39;;;;;;;16.83;7.82;;;15.50;99.90;;;;;;5071282;28;20040;-70
2023/06/09 06:18:04;;;;;;;17.15;7.68;;;15.60;99.90;;;;;;5054463;28;20044;-70
2023/06/09 06:20:30;;;;;;;21.20;8.35;;;15.70;99.90;;;;;;5071222;28;20036;-70
2023/06/09 06:22:57;;;;;;;19.33;7.30;;;15.80;99.90;;;;;;5071367;28;20045;-70
2023/06/09 06:25:23;;;;;;;16.65;7.93;;;15.90;99.90;;;;;;5074175;28;20070;-70
2023/06/09 06:27:49;;;;;;;16.30;6.70;;;16.00;99.90;;;;;;5074996;28;20040;-70
2023/06/09 06:30:15;;;;;;;17.20;7.50;;;16.10;99.90;;;;;;5074702;28;20032;-70
2023/06/09 06:32:52;;;;;;;14.00;6.65;;;16.20;99.90;;;;;;5074606;28;20123;-71
2023/06/09 06:35:25;;;;;;;15.43;6.38;;;16.30;99.90;;;;;;5074678;28;20093;-71
2023/06/09 06:37:51;;;;;;;15.07;6.13;;;16.40;99.90;;;;;;5074851;28;20051;-71
2023/06/09 06:40:17;;;;;;;19.67;6.90;;;16.50;99.90;;;;;;5057894;28;20497;-70
2023/06/09 06:42:42;;;;;;;17.30;7.43;;;16.70;99.90;;;;;;5074434;28;20052;-70
2023/06/09 06:45:08;;;;;;;16.95;7.35;;;16.80;99.90;;;;;;5074338;28;20037;-70
2023/06/09 06:47:34;;;;;;;14.77;7.25;;;16.90;99.90;;;;;;5074645;28;20047;-70
2023/06/09 06:50:00;;;;;;;15.82;6.60;;;16.90;99.90;;;;;;5074294;28;20115;-70
2023/06/09 06:52:26;;;;;;;16.08;6.93;;;17.00;99.90;;;;;;5074374;28;20040;-70
2023/06/09 06:54:51;;;;;;;12.73;6.05;;;17.10;99.90;;;;;;5057611;28;20481;-70
2023/06/09 06:57:17;;;;;;;15.05;6.82;;;17.20;99.90;;;;;;5074498;28;20052;-70
2023/06/09 06:59:42;;;;;;;17.10;6.10;;;17.30;99.90;;;;;;5057796;28;20468;-70
2023/06/09 07:02:08;;;;;;;18.88;7.22;;;17.40;99.90;;;;;;5074082;28;20045;-70
2023/06/09 07:04:34;;;;;;;17.75;6.95;;;17.50;99.90;;;;;;5074084;28;20043;-70
2023/06/09 07:06:59;;;;;;;15.90;6.45;;;17.60;99.90;;;;;;5074275;28;20045;-70
2023/06/09 07:09:27;;;;;;;17.35;7.45;;;17.70;99.90;;;;;;5074256;28;20032;-71
2023/06/09 07:11:53;;;;;;;16.05;6.28;;;17.80;99.90;;;;;;5074103;28;20055;-71
2023/06/09 07:14:18;;;;;;;15.75;6.55;;;17.90;99.90;;;;;;5057255;28;20401;-70
2023/06/09 07:16:44;;;;;;;18.38;7.20;;;18.00;99.90;;;;;;5073794;28;20051;-70
2023/06/09 07:19:10;;;;;;;13.63;6.43;;;18.10;99.80;;;;;;5073837;28;20044;-70
2023/06/09 07:21:36;;;;;;;12.75;6.75;;;18.20;99.50;;;;;;5073653;28;20043;-70
2023/06/09 07:24:03;;;;;;;14.45;6.15;;;18.40;99.40;;;;;;5074009;28;20137;-70
2023/06/09 07:26:29;;;;;;;16.40;6.97;;;18.50;98.70;;;;;;5073659;28;20036;-70
2023/06/09 07:28:55;;;;;;;18.50;6.25;;;18.60;98.40;;;;;;5073657;28;20125;-70
2023/06/09 07:31:21;;;;;;;15.48;6.80;;;18.70;98.20;;;;;;5073525;28;20106;-70
2023/06/09 07:33:46;;;;;;;14.52;6.70;;;18.80;97.60;;;;;;5073504;28;20044;-70
2023/06/09 07:36:13;;;;;;;13.30;5.65;;;18.90;96.70;;;;;;5074398;28;20197;-70
2023/06/09 07:38:39;;;;;;;13.65;6.30;;;19.00;96.10;;;;;;5073414;28;20487;-70
2023/06/09 07:41:05;;;;;;;12.88;5.65;;;19.10;95.50;;;;;;5073542;28;20057;-70
2023/06/09 07:43:31;;;;;;;17.70;6.63;;;19.20;95.50;;;;;;5073333;28;20036;-70
2023/06/09 07:45:56;;;;;;;13.68;6.45;;;19.30;95.10;;;;;;5073197;28;20044;-70
2023/06/09 07:48:22;;;;;;;15.68;6.45;;;19.40;95.10;;;;;;5073534;28;20029;-70
2023/06/09 07:50:47;;;;;;;12.23;6.15;;;19.50;94.70;;;;;;5073185;28;20389;-70
2023/06/09 07:53:13;;;;;;;13.63;6.20;;;19.70;94.10;;;;;;5073343;28;20036;-70
2023/06/09 07:55:39;;;;;;;17.05;7.10;;;19.80;93.60;;;;;;5073341;28;20408;-70
2023/06/09 07:58:04;;;;;;;14.90;5.80;;;19.80;93.30;;;;;;5073059;28;20098;-70
2023/06/09 08:00:30;;;;;;;13.68;6.25;;;19.90;93.00;;;;;;5073030;28;20094;-70
2023/06/09 08:03:02;;;;;;;10.45;5.30;;;20.00;92.40;;;;;;5072899;28;20040;-70
2023/06/09 08:05:29;;;;;;;12.63;6.10;;;20.20;92.50;;;;;;5072988;28;20037;-70
2023/06/09 08:07:55;;;;;;;14.02;6.32;;;20.30;92.50;;;;;;5073112;28;20051;-70
2023/06/09 08:10:21;;;;;;;12.93;6.25;;;20.50;92.10;;;;;;5072835;28;20405;-70
2023/06/09 08:12:52;;;;;;;13.07;6.10;;;20.60;91.90;;;;;;5072615;28;20101;-70
2023/06/09 08:15:18;;;;;;;11.40;6.35;;;20.80;91.40;;;;;;5056063;28;20489;-70
2023/06/09 08:17:44;;;;;;;17.02;7.47;;;20.90;91.30;;;;;;5056022;28;20166;-71
2023/06/09 08:20:10;;;;;;;14.30;6.55;;;21.00;91.10;;;;;;5056002;28;20051;-71
2023/06/09 08:22:35;;;;;;;11.60;5.43;;;21.20;90.80;;;;;;5072480;28;20096;-71
2023/06/09 08:25:02;;;;;;;13.00;6.05;;;21.30;90.80;;;;;;5056325;28;20123;-71
2023/06/09 08:27:28;;;;;;;11.68;5.75;;;21.40;90.60;;;;;;5072684;28;20415;-71
2023/06/09 08:29:54;;;;;;;16.15;5.22;;;21.50;90.10;;;;;;5072401;28;20090;-71
2023/06/09 08:32:19;;;;;;;13.25;5.30;;;21.60;88.90;;;;;;5072275;28;20032;-71
2023/06/09 08:34:45;;;;;;;13.77;5.22;;;21.70;88.80;;;;;;5072327;28;20060;-71
2023/06/09 08:37:11;;;;;;;13.10;5.20;;;21.90;88.20;;;;;;5072337;28;20094;-71
2023/06/09 08:39:36;;;;;;;14.00;5.78;;;22.10;87.40;;;;;;5072244;28;20047;-71
2023/06/09 08:42:14;;;;;;;15.40;5.75;;;22.30;87.20;;;;;;5072429;28;20128;-71
2023/06/09 08:44:45;;;;;;;11.48;5.35;;;22.40;85.50;;;;;;5072173;28;20090;-71
2023/06/09 08:47:12;;;;;;;13.23;5.28;;;22.50;85.30;;;;;;5054885;28;20463;-71
2023/06/09 08:49:39;;;;;;;13.73;5.70;;;22.70;84.20;;;;;;5055410;28;20508;-71
2023/06/09 08:52:05;;;;;;;12.48;4.60;;;22.80;84.10;;;;;;5072253;28;20036;-71
2023/06/09 08:54:31;;;;;;;11.68;4.70;;;23.00;83.10;;;;;;5072053;28;20036;-71
2023/06/09 08:56:58;;;;;;;15.10;4.57;;;23.10;81.80;;;;;;5072286;28;20033;-71
2023/06/09 08:59:24;;;;;;;10.20;4.57;;;23.20;80.90;;;;;;5071978;28;20501;-71
2023/06/09 09:01:50;;;;;;;12.45;5.35;;;23.40;79.70;;;;;;5072136;28;20079;-71
2023/06/09 09:04:19;;;;;;;10.18;4.68;;;23.50;79.40;;;;;;5071963;28;20072;-71
2023/06/09 09:06:46;;;;;;;11.88;4.93;;;23.50;78.30;;;;;;5072216;28;20495;-71
2023/06/09 09:09:12;;;;;;;8.52;5.13;;;23.60;77.70;;;;;;5071936;28;20573;-71
2023/06/09 09:11:38;;;;;;;9.93;4.53;;;23.70;77.40;;;;;;5055073;28;20043;-71
2023/06/09 09:14:11;;;;;;;7.00;3.85;;;23.90;77.00;;;;;;5072095;28;20044;-71
2023/06/09 09:16:37;;;;;;;13.82;4.85;;;24.10;77.60;;;;;;5055403;28;20475;-71
2023/06/09 09:19:04;;;;;;;13.57;5.07;;;24.30;77.00;;;;;;5071788;28;20048;-71
2023/06/09 09:21:29;;;;;;;10.93;4.15;;;24.40;75.50;;;;;;5071691;28;20493;-71
2023/06/09 09:24:07;;;;;;;10.85;4.75;;;24.50;74.60;;;;;;5071761;28;20045;-72
2023/06/09 09:26:33;;;;;;;11.07;3.97;;;24.70;73.70;;;;;;5071686;28;20048;-72
2023/06/09 09:29:04;;;;;;;11.18;5.15;;;24.80;73.50;;;;;;5071691;28;20040;-71
2023/06/09 09:31:39;;;;;;;11.20;4.63;;;24.90;71.80;;;;;;5071971;28;20045;-71
2023/06/09 09:34:13;;;;;;;11.00;4.40;;;25.10;72.30;;;;;;5071926;28;20115;-71
2023/06/09 09:36:45;;;;;;;10.40;4.07;;;25.30;72.40;;;;;;5071663;28;20044;-72
2023/06/09 09:39:11;;;;;;;7.18;4.00;;;25.40;71.40;;;;;;5055180;28;20079;-72
2023/06/09 09:41:37;;;;;;;11.48;4.57;;;25.50;71.20;;;;;;5071528;28;20055;-71
2023/06/09 09:44:03;;;;;;;11.57;4.45;;;25.60;71.20;;;;;;5054814;28;20036;-71
2023/06/09 09:46:36;;;;;;;11.68;4.50;;;25.70;70.40;;;;;;5071488;28;20131;-73
2023/06/09 09:49:05;;;;;;;9.18;4.25;;;25.90;69.30;;;;;;5054842;28;20067;-72
2023/06/09 09:51:33;;;;;;;9.57;4.30;;;26.00;68.80;;;;;;5054725;28;20119;-72
2023/06/09 09:53:59;;;;;;;11.05;4.70;;;26.20;69.00;;;;;;5055064;28;20040;-72
2023/06/09 09:56:25;;;;;;;7.85;4.10;;;26.40;68.00;;;;;;5071439;28;20036;-72
2023/06/09 09:58:53;;;;;;;8.45;4.03;;;26.50;67.30;;;;;;5056938;28;20040;-72
2023/06/09 10:01:23;;;;;;;8.45;3.80;;;26.60;66.20;;;;;;5075229;28;20492;-72
2023/06/09 10:03:51;;;;;;;9.43;3.90;;;26.70;65.70;;;;;;5058541;28;20127;-72
2023/06/09 10:06:19;;;;;;;9.07;4.20;;;27.00;65.80;;;;;;5058372;28;20539;-72
2023/06/09 10:08:45;;;;;;;9.38;4.20;;;27.10;64.60;;;;;;5075114;28;20043;-72
2023/06/09 10:11:12;;;;;;;10.85;4.50;;;27.20;64.10;;;;;;5074985;28;20086;-72
2023/06/09 10:13:38;;;;;;;10.65;4.05;;;27.30;62.70;;;;;;5075033;28;20058;-72
2023/06/09 10:16:05;;;;;;;9.95;3.72;;;27.40;62.40;;;;;;5074957;28;20048;-72
2023/06/09 10:18:32;;;;;;;8.98;4.40;;;27.50;62.40;;;;;;5075221;28;20041;-72
2023/06/09 10:20:58;;;;;;;10.63;4.28;;;27.60;62.30;;;;;;5074895;28;20045;-72
2023/06/09 10:23:25;;;;;;;12.32;4.00;;;27.70;61.70;;;;;;5074758;28;20072;-71
2023/06/09 10:25:51;;;;;;;8.43;4.20;;;27.80;61.20;;;;;;5074705;28;20116;-71
2023/06/09 10:28:18;;;;;;;6.78;3.40;;;27.80;61.40;;;;;;5076060;28;20033;-71
2023/06/09 10:30:45;;;;;;;10.70;3.92;;;27.90;61.60;;;;;;5074983;28;20129;-71
2023/06/09 10:33:30;;;;;;;8.10;3.83;;;28.00;61.50;;;;;;5074829;28;20052;-71
2023/06/09 10:36:03;;;;;;;8.20;4.00;;;28.20;59.70;;;;;;5074676;28;20048;-72
2023/06/09 10:38:30;;;;;;;7.07;3.55;;;28.30;59.50;;;;;;5074639;28;20052;-72
2023/06/09 10:41:27;;;;;;;10.85;4.47;;;28.40;58.60;;;;;;5074530;28;20040;-72
2023/06/09 10:44:05;;;;;;;9.20;3.75;;;28.60;58.30;;;;;;5074497;28;20040;-72
2023/06/09 10:46:42;;;;;;;8.57;3.95;;;28.80;59.30;;;;;;5074411;28;20123;-72
2023/06/09 10:49:40;;;;;;;8.35;4.32;;;28.80;58.10;;;;;;5074637;28;20155;-72
2023/06/09 10:52:37;;;;;;;8.02;3.90;;;28.90;57.70;;;;;;5074336;28;20115;-72
2023/06/09 10:55:15;;;;;;;9.00;3.88;;;29.20;57.60;;;;;;5074315;28;20036;-72
2023/06/09 10:57:41;;;;;;;11.30;3.92;;;29.30;56.70;;;;;;5074255;28;20048;-72
2023/06/09 11:00:11;;;;;;;8.15;3.50;;;29.50;55.50;;;;;;5074174;28;20558;-72
2023/06/09 11:03:06;;;;;;;9.18;3.67;;;29.60;56.20;;;;;;5074306;28;20041;-72
2023/06/09 11:05:41;;;;;;;7.57;3.20;;;29.70;54.60;;;;;;5056761;28;20049;-72
2023/06/09 11:08:07;;;;;;;5.05;3.40;;;29.80;54.90;;;;;;5057316;28;20028;-72
2023/06/09 11:10:36;;;;;;;7.72;3.40;;;29.90;54.10;;;;;;5073521;28;20117;-72
2023/06/09 11:13:03;;;;;;;11.23;3.47;;;29.90;52.40;;;;;;5073909;28;20386;-72
2023/06/09 11:15:57;;;;;;;4.60;3.28;;;30.00;53.00;;;;;;5073965;28;20041;-72
2023/06/09 11:18:23;;;;;;;4.85;3.65;;;30.10;52.80;;;;;;5073839;28;20082;-72
2023/06/09 11:21:08;;;;;;;7.53;3.40;;;30.20;53.10;;;;;;5073844;28;20052;-72
2023/06/09 11:23:56;;;;;;;8.75;3.92;;;30.30;52.30;;;;;;5073810;28;20047;-72
2023/06/09 11:26:25;;;;;;;6.43;3.60;;;30.40;51.90;;;;;;5073752;28;20155;-72
2023/06/09 11:28:51;;;;;;;7.72;3.17;;;30.40;51.10;;;;;;5073653;28;20047;-72
2023/06/09 11:31:17;;;;;;;11.50;3.65;;;30.50;50.80;;;;;;5073562;28;20032;-72
2023/06/09 11:33:45;;;;;;;7.60;3.92;;;30.70;51.50;;;;;;5073579;28;20032;-72
2023/06/09 11:36:19;;;;;;;7.72;4.00;;;30.70;50.60;;;;;;5056825;28;20535;-72
2023/06/09 11:38:46;;;;;;;9.73;3.65;;;30.60;50.70;;;;;;5073480;28;20555;-72
2023/06/09 11:41:13;;;;;;;6.88;3.78;;;30.70;50.40;;;;;;5073372;28;20517;-72
2023/06/09 11:43:39;;;;;;;7.07;3.53;;;30.80;50.70;;;;;;5056718;28;20119;-72
2023/06/09 11:46:04;;;;;;;6.45;3.22;;;30.90;50.50;;;;;;5073236;28;20128;-72
2023/06/09 11:48:30;;;;;;;9.75;3.55;;;31.00;49.60;;;;;;5056636;28;20064;-72
2023/06/09 11:50:56;;;;;;;6.18;3.53;;;31.00;49.30;;;;;;5073225;28;20485;-72
2023/06/09 11:53:23;;;;;;;8.60;4.00;;;31.00;49.30;;;;;;5073360;28;20127;-73
2023/06/09 11:56:06;;;;;;;7.80;3.90;;;31.00;49.40;;;;;;5073132;28;20067;-72
2023/06/09 11:58:31;;;;;;;11.13;3.45;;;31.10;49.80;;;;;;5073082;28;20040;-72
2023/06/09 12:00:57;;;;;;;8.90;3.85;;;31.20;50.00;;;;;;5073005;28;20048;-72
2023/06/09 12:03:23;;;;;;;7.10;3.67;;;31.40;49.30;;;;;;5072912;28;20052;-72
2023/06/09 12:05:50;;;;;;;8.68;3.90;;;31.40;48.80;;;;;;5072854;28;20048;-72
2023/06/09 12:08:16;;;;;;;9.07;3.88;;;31.50;48.40;;;;;;5072842;28;20037;-72
2023/06/09 12:10:41;;;;;;;7.93;3.70;;;31.40;48.50;;;;;;5072784;28;20037;-72
2023/06/09 12:13:07;;;;;;;7.10;3.97;;;31.50;48.30;;;;;;5072751;28;20036;-72
2023/06/09 12:15:33;;;;;;;8.48;3.83;;;31.40;47.30;;;;;;5072697;28;20044;-72
2023/06/09 12:18:03;;;;;;;10.27;3.90;;;31.50;48.10;;;;;;5072644;28;20043;-72
2023/06/09 12:20:36;;;;;;;7.22;4.05;;;31.60;47.80;;;;;;5072881;28;20048;-72
2023/06/09 12:23:07;;;;;;;9.35;3.40;;;31.60;47.50;;;;;;5071946;28;20489;-72
2023/06/09 12:25:37;;;;;;;6.45;3.90;;;31.70;47.60;;;;;;5072602;28;20112;-72
2023/06/09 12:28:23;;;;;;;8.00;3.70;;;32.00;48.10;;;;;;5072770;28;20036;-72
2023/06/09 12:30:53;;;;;;;6.95;3.50;;;32.00;46.90;;;;;;5072685;28;20040;-71
2023/06/09 12:33:22;;;;;;;6.88;3.47;;;32.10;46.80;;;;;;5072365;28;20490;-71
2023/06/09 12:36:12;;;;;;;5.75;3.25;;;32.20;47.00;;;;;;5055978;28;20059;-72
2023/06/09 12:38:45;;;;;;;7.80;3.30;;;32.30;47.00;;;;;;5055850;28;20405;-72
2023/06/09 12:41:13;;;;;;;7.82;3.60;;;32.30;46.70;;;;;;5072212;28;20041;-72
2023/06/09 12:43:45;;;;;;;10.02;4.05;;;32.30;46.50;;;;;;5072236;28;20040;-72